Main page
METAR-TAF:

METAR-TAF

Airports :

Cap-Haïtien International Airport

Cap-Haïtien, Haiti

latitude: 19-43-59N, longitude: 72-11-41W, elevation: 3 m

METAR: missing

Time: 22:37 (02:37 UTC)

Forecast

The report was made 8 hours and 48 minutes ago, at 17:49 UTC
Forecast valid from 15 at 18 UTC to 16 at 18 UTC
Wind 14 kt from the Northeast
Visibility: 9000 m
Few clouds at a height of 3000 ft
From 16 at 0300 UTC
Wind 2 kt from variable directions
Visibility: 7000 m

TAF: MTCH 151749Z 1518/1618 04014KT 9000 FEW030 FM160300 VRB02KT 7000 NSC

Weather observations and forecasts of more than 4000 airports (METAR and TAF reports).

The available stations are represented by yellow and red dots on the map.

Hover mouse over dot to see the name of the station.

Then click to see weather observations and forecasts.

To change the map : click on the green buttons with a black cross to zoom in, on the green button with a dash to zoom out, or on the green arrows for adjacent maps.


METAR-TAF: